sensor_id;sensor_type;location;lat;lon;timestamp;P1;durP1;ratioP1;P2;durP2;ratioP2
76606;SDS011;65498;50.916;4.698;2023-01-16T00:01:44;8.55;;;4.17;;
76606;SDS011;65498;50.916;4.698;2023-01-16T00:04:12;8.93;;;3.80;;
76606;SDS011;65498;50.916;4.698;2023-01-16T00:06:39;7.50;;;3.40;;
76606;SDS011;65498;50.916;4.698;2023-01-16T00:09:07;8.68;;;4.20;;
76606;SDS011;65498;50.916;4.698;2023-01-16T00:11:35;9.38;;;3.95;;
76606;SDS011;65498;50.916;4.698;2023-01-16T00:14:02;7.70;;;3.27;;
76606;SDS011;65498;50.916;4.698;2023-01-16T00:16:30;7.80;;;3.77;;
76606;SDS011;65498;50.916;4.698;2023-01-16T00:18:58;7.10;;;3.20;;
76606;SDS011;65498;50.916;4.698;2023-01-16T00:21:25;8.18;;;3.80;;
76606;SDS011;65498;50.916;4.698;2023-01-16T00:23:53;10.15;;;4.50;;
76606;SDS011;65498;50.916;4.698;2023-01-16T00:26:22;8.15;;;3.45;;
76606;SDS011;65498;50.916;4.698;2023-01-16T00:28:52;7.67;;;3.12;;
76606;SDS011;65498;50.916;4.698;2023-01-16T00:31:19;7.42;;;3.12;;
76606;SDS011;65498;50.916;4.698;2023-01-16T00:33:49;7.50;;;3.33;;
76606;SDS011;65498;50.916;4.698;2023-01-16T00:36:16;8.53;;;3.37;;
76606;SDS011;65498;50.916;4.698;2023-01-16T00:38:44;7.03;;;3.17;;
76606;SDS011;65498;50.916;4.698;2023-01-16T00:41:12;7.95;;;3.40;;
76606;SDS011;65498;50.916;4.698;2023-01-16T00:43:39;7.67;;;3.08;;
76606;SDS011;65498;50.916;4.698;2023-01-16T00:46:07;10.18;;;3.83;;
76606;SDS011;65498;50.916;4.698;2023-01-16T00:48:35;7.37;;;3.00;;
76606;SDS011;65498;50.916;4.698;2023-01-16T00:51:02;7.05;;;2.98;;
76606;SDS011;65498;50.916;4.698;2023-01-16T00:53:30;8.43;;;3.33;;
76606;SDS011;65498;50.916;4.698;2023-01-16T00:55:57;13.22;;;4.62;;
76606;SDS011;65498;50.916;4.698;2023-01-16T00:58:25;12.40;;;4.47;;
76606;SDS011;65498;50.916;4.698;2023-01-16T01:00:53;9.03;;;4.03;;
76606;SDS011;65498;50.916;4.698;2023-01-16T01:03:20;11.63;;;3.75;;
76606;SDS011;65498;50.916;4.698;2023-01-16T01:05:48;13.50;;;3.80;;
76606;SDS011;65498;50.916;4.698;2023-01-16T01:08:15;11.88;;;3.83;;
76606;SDS011;65498;50.916;4.698;2023-01-16T01:10:43;10.13;;;3.70;;
76606;SDS011;65498;50.916;4.698;2023-01-16T01:13:10;10.95;;;3.50;;
76606;SDS011;65498;50.916;4.698;2023-01-16T01:15:38;13.55;;;4.10;;
76606;SDS011;65498;50.916;4.698;2023-01-16T01:18:06;14.47;;;4.08;;
76606;SDS011;65498;50.916;4.698;2023-01-16T01:20:34;12.68;;;3.10;;
76606;SDS011;65498;50.916;4.698;2023-01-16T01:23:01;9.55;;;3.02;;
76606;SDS011;65498;50.916;4.698;2023-01-16T01:25:29;11.45;;;3.22;;
76606;SDS011;65498;50.916;4.698;2023-01-16T01:27:56;13.93;;;3.62;;
76606;SDS011;65498;50.916;4.698;2023-01-16T01:30:24;9.58;;;3.17;;
76606;SDS011;65498;50.916;4.698;2023-01-16T01:32:51;10.15;;;3.83;;
76606;SDS011;65498;50.916;4.698;2023-01-16T01:35:19;9.83;;;3.30;;
76606;SDS011;65498;50.916;4.698;2023-01-16T01:37:47;9.33;;;3.30;;
76606;SDS011;65498;50.916;4.698;2023-01-16T01:40:14;9.10;;;3.25;;
76606;SDS011;65498;50.916;4.698;2023-01-16T01:42:42;9.25;;;3.02;;
76606;SDS011;65498;50.916;4.698;2023-01-16T01:45:18;13.18;;;3.60;;
76606;SDS011;65498;50.916;4.698;2023-01-16T01:50:38;8.65;;;3.00;;
76606;SDS011;65498;50.916;4.698;2023-01-16T01:53:12;6.92;;;2.80;;
76606;SDS011;65498;50.916;4.698;2023-01-16T01:55:40;10.48;;;3.67;;
76606;SDS011;65498;50.916;4.698;2023-01-16T01:58:10;8.80;;;3.08;;
76606;SDS011;65498;50.916;4.698;2023-01-16T02:00:41;8.70;;;2.80;;
76606;SDS011;65498;50.916;4.698;2023-01-16T02:03:15;7.80;;;2.47;;
76606;SDS011;65498;50.916;4.698;2023-01-16T02:05:41;7.72;;;2.92;;
76606;SDS011;65498;50.916;4.698;2023-01-16T02:08:14;9.58;;;3.30;;
76606;SDS011;65498;50.916;4.698;2023-01-16T02:10:50;9.35;;;2.70;;
76606;SDS011;65498;50.916;4.698;2023-01-16T02:13:14;9.33;;;2.60;;
76606;SDS011;65498;50.916;4.698;2023-01-16T02:15:42;6.97;;;2.42;;
76606;SDS011;65498;50.916;4.698;2023-01-16T02:18:27;9.83;;;2.80;;
76606;SDS011;65498;50.916;4.698;2023-01-16T02:21:54;9.58;;;3.20;;
76606;SDS011;65498;50.916;4.698;2023-01-16T02:24:14;8.70;;;2.37;;
76606;SDS011;65498;50.916;4.698;2023-01-16T02:38:34;6.92;;;2.00;;
76606;SDS011;65498;50.916;4.698;2023-01-16T02:49:54;6.15;;;1.90;;
76606;SDS011;65498;50.916;4.698;2023-01-16T02:52:31;7.22;;;2.52;;
76606;SDS011;65498;50.916;4.698;2023-01-16T02:55:03;7.60;;;2.50;;
76606;SDS011;65498;50.916;4.698;2023-01-16T02:57:35;8.18;;;2.50;;
76606;SDS011;65498;50.916;4.698;2023-01-16T03:00:05;6.75;;;1.95;;
76606;SDS011;65498;50.916;4.698;2023-01-16T03:02:34;10.72;;;2.30;;
76606;SDS011;65498;50.916;4.698;2023-01-16T03:05:01;6.70;;;1.95;;
76606;SDS011;65498;50.916;4.698;2023-01-16T03:13:00;7.72;;;2.20;;
76606;SDS011;65498;50.916;4.698;2023-01-16T03:15:57;6.15;;;2.20;;
76606;SDS011;65498;50.916;4.698;2023-01-16T03:18:33;7.28;;;1.98;;
76606;SDS011;65498;50.916;4.698;2023-01-16T03:23:55;7.60;;;1.87;;
76606;SDS011;65498;50.916;4.698;2023-01-16T03:26:32;5.90;;;1.77;;
76606;SDS011;65498;50.916;4.698;2023-01-16T03:34:38;5.85;;;1.92;;
76606;SDS011;65498;50.916;4.698;2023-01-16T03:37:25;6.37;;;1.82;;
76606;SDS011;65498;50.916;4.698;2023-01-16T03:39:56;5.62;;;2.02;;
76606;SDS011;65498;50.916;4.698;2023-01-16T03:42:35;5.58;;;1.90;;
76606;SDS011;65498;50.916;4.698;2023-01-16T03:45:09;9.35;;;3.20;;
76606;SDS011;65498;50.916;4.698;2023-01-16T03:47:39;5.45;;;1.80;;
76606;SDS011;65498;50.916;4.698;2023-01-16T03:50:09;6.03;;;1.55;;
76606;SDS011;65498;50.916;4.698;2023-01-16T03:52:44;6.47;;;1.92;;
76606;SDS011;65498;50.916;4.698;2023-01-16T03:55:14;5.05;;;1.50;;
76606;SDS011;65498;50.916;4.698;2023-01-16T03:58:05;5.00;;;1.70;;
76606;SDS011;65498;50.916;4.698;2023-01-16T04:00:19;6.33;;;1.60;;
76606;SDS011;65498;50.916;4.698;2023-01-16T04:02:52;6.03;;;1.60;;
76606;SDS011;65498;50.916;4.698;2023-01-16T04:05:25;5.28;;;1.75;;
76606;SDS011;65498;50.916;4.698;2023-01-16T04:07:59;5.12;;;1.62;;
76606;SDS011;65498;50.916;4.698;2023-01-16T04:10:32;7.80;;;1.65;;
76606;SDS011;65498;50.916;4.698;2023-01-16T04:13:05;5.45;;;1.45;;
76606;SDS011;65498;50.916;4.698;2023-01-16T04:15:36;6.62;;;1.25;;
76606;SDS011;65498;50.916;4.698;2023-01-16T04:18:06;7.30;;;2.80;;
76606;SDS011;65498;50.916;4.698;2023-01-16T04:20:34;6.58;;;1.50;;
76606;SDS011;65498;50.916;4.698;2023-01-16T04:23:04;5.83;;;1.65;;
76606;SDS011;65498;50.916;4.698;2023-01-16T04:25:31;4.70;;;1.40;;
76606;SDS011;65498;50.916;4.698;2023-01-16T04:27:59;5.20;;;1.35;;
76606;SDS011;65498;50.916;4.698;2023-01-16T04:30:26;4.05;;;1.10;;
76606;SDS011;65498;50.916;4.698;2023-01-16T04:32:54;6.20;;;1.40;;
76606;SDS011;65498;50.916;4.698;2023-01-16T04:35:22;8.55;;;1.77;;
76606;SDS011;65498;50.916;4.698;2023-01-16T04:37:49;5.60;;;1.45;;
76606;SDS011;65498;50.916;4.698;2023-01-16T04:40:17;6.30;;;1.70;;
76606;SDS011;65498;50.916;4.698;2023-01-16T04:42:44;5.42;;;1.50;;
76606;SDS011;65498;50.916;4.698;2023-01-16T04:45:12;6.17;;;1.77;;
76606;SDS011;65498;50.916;4.698;2023-01-16T04:47:39;6.42;;;1.60;;
76606;SDS011;65498;50.916;4.698;2023-01-16T04:50:09;5.20;;;1.20;;
76606;SDS011;65498;50.916;4.698;2023-01-16T04:52:37;5.40;;;1.75;;
76606;SDS011;65498;50.916;4.698;2023-01-16T04:55:04;3.87;;;1.30;;
76606;SDS011;65498;50.916;4.698;2023-01-16T04:57:32;4.60;;;1.30;;
76606;SDS011;65498;50.916;4.698;2023-01-16T05:00:00;4.65;;;1.52;;
76606;SDS011;65498;50.916;4.698;2023-01-16T05:02:29;5.22;;;1.40;;
76606;SDS011;65498;50.916;4.698;2023-01-16T05:04:56;4.72;;;1.40;;
76606;SDS011;65498;50.916;4.698;2023-01-16T05:07:24;4.80;;;1.32;;
76606;SDS011;65498;50.916;4.698;2023-01-16T05:09:53;5.50;;;1.40;;
76606;SDS011;65498;50.916;4.698;2023-01-16T05:12:20;5.03;;;1.50;;
76606;SDS011;65498;50.916;4.698;2023-01-16T05:14:48;5.17;;;1.40;;
76606;SDS011;65498;50.916;4.698;2023-01-16T05:17:15;5.05;;;1.25;;
76606;SDS011;65498;50.916;4.698;2023-01-16T05:19:43;6.53;;;1.25;;
76606;SDS011;65498;50.916;4.698;2023-01-16T05:22:10;4.65;;;1.20;;
76606;SDS011;65498;50.916;4.698;2023-01-16T05:24:38;5.50;;;1.32;;
76606;SDS011;65498;50.916;4.698;2023-01-16T05:27:06;3.67;;;1.07;;
76606;SDS011;65498;50.916;4.698;2023-01-16T05:29:33;3.00;;;0.90;;
76606;SDS011;65498;50.916;4.698;2023-01-16T05:32:01;6.08;;;1.42;;
76606;SDS011;65498;50.916;4.698;2023-01-16T05:34:28;3.33;;;1.10;;
76606;SDS011;65498;50.916;4.698;2023-01-16T05:36:56;4.15;;;1.10;;
76606;SDS011;65498;50.916;4.698;2023-01-16T05:39:23;4.53;;;1.20;;
76606;SDS011;65498;50.916;4.698;2023-01-16T05:41:51;4.53;;;1.10;;
76606;SDS011;65498;50.916;4.698;2023-01-16T05:44:18;5.85;;;1.50;;
76606;SDS011;65498;50.916;4.698;2023-01-16T05:46:46;4.33;;;0.98;;
76606;SDS011;65498;50.916;4.698;2023-01-16T05:49:15;3.42;;;1.10;;
76606;SDS011;65498;50.916;4.698;2023-01-16T05:51:43;4.70;;;1.25;;
76606;SDS011;65498;50.916;4.698;2023-01-16T05:54:11;4.42;;;1.00;;
76606;SDS011;65498;50.916;4.698;2023-01-16T05:56:38;3.80;;;1.10;;
76606;SDS011;65498;50.916;4.698;2023-01-16T05:59:07;4.12;;;1.00;;
76606;SDS011;65498;50.916;4.698;2023-01-16T06:01:35;5.22;;;1.27;;
76606;SDS011;65498;50.916;4.698;2023-01-16T06:04:03;5.78;;;1.00;;
76606;SDS011;65498;50.916;4.698;2023-01-16T06:06:31;4.78;;;1.10;;
76606;SDS011;65498;50.916;4.698;2023-01-16T06:08:58;7.62;;;1.32;;
76606;SDS011;65498;50.916;4.698;2023-01-16T06:11:26;3.83;;;1.02;;
76606;SDS011;65498;50.916;4.698;2023-01-16T06:13:53;3.05;;;1.12;;
76606;SDS011;65498;50.916;4.698;2023-01-16T06:16:21;3.42;;;0.93;;
76606;SDS011;65498;50.916;4.698;2023-01-16T06:18:49;4.15;;;1.05;;
76606;SDS011;65498;50.916;4.698;2023-01-16T06:21:16;4.97;;;1.42;;
76606;SDS011;65498;50.916;4.698;2023-01-16T06:23:44;4.37;;;1.17;;
76606;SDS011;65498;50.916;4.698;2023-01-16T06:26:12;3.83;;;0.93;;
76606;SDS011;65498;50.916;4.698;2023-01-16T06:28:39;7.37;;;1.10;;
76606;SDS011;65498;50.916;4.698;2023-01-16T06:31:07;7.62;;;1.17;;
76606;SDS011;65498;50.916;4.698;2023-01-16T06:33:35;4.65;;;1.10;;
76606;SDS011;65498;50.916;4.698;2023-01-16T06:36:02;5.33;;;1.27;;
76606;SDS011;65498;50.916;4.698;2023-01-16T06:38:30;4.78;;;1.45;;
76606;SDS011;65498;50.916;4.698;2023-01-16T06:40:58;5.72;;;0.98;;
76606;SDS011;65498;50.916;4.698;2023-01-16T06:43:26;7.55;;;1.10;;
76606;SDS011;65498;50.916;4.698;2023-01-16T06:45:54;4.08;;;1.00;;
76606;SDS011;65498;50.916;4.698;2023-01-16T06:48:22;4.37;;;0.88;;
76606;SDS011;65498;50.916;4.698;2023-01-16T06:50:51;4.60;;;1.02;;
76606;SDS011;65498;50.916;4.698;2023-01-16T06:53:19;6.87;;;1.10;;
76606;SDS011;65498;50.916;4.698;2023-01-16T06:55:47;3.70;;;0.80;;
76606;SDS011;65498;50.916;4.698;2023-01-16T06:58:14;4.42;;;1.17;;
76606;SDS011;65498;50.916;4.698;2023-01-16T07:00:42;3.65;;;0.90;;
76606;SDS011;65498;50.916;4.698;2023-01-16T07:03:10;4.25;;;0.90;;
76606;SDS011;65498;50.916;4.698;2023-01-16T07:05:38;4.17;;;1.35;;
76606;SDS011;65498;50.916;4.698;2023-01-16T07:08:06;2.65;;;0.80;;
76606;SDS011;65498;50.916;4.698;2023-01-16T07:10:33;5.60;;;1.37;;
76606;SDS011;65498;50.916;4.698;2023-01-16T07:13:01;3.17;;;0.88;;
76606;SDS011;65498;50.916;4.698;2023-01-16T07:15:29;4.45;;;1.10;;
76606;SDS011;65498;50.916;4.698;2023-01-16T07:18:14;2.50;;;0.75;;
76606;SDS011;65498;50.916;4.698;2023-01-16T07:21:01;3.37;;;0.82;;
76606;SDS011;65498;50.916;4.698;2023-01-16T07:23:53;3.98;;;0.72;;
76606;SDS011;65498;50.916;4.698;2023-01-16T07:26:22;2.52;;;0.90;;
76606;SDS011;65498;50.916;4.698;2023-01-16T07:28:50;3.90;;;0.80;;
76606;SDS011;65498;50.916;4.698;2023-01-16T07:31:20;3.15;;;0.70;;
76606;SDS011;65498;50.916;4.698;2023-01-16T07:33:48;4.17;;;1.00;;
76606;SDS011;65498;50.916;4.698;2023-01-16T07:36:16;6.90;;;0.95;;
76606;SDS011;65498;50.916;4.698;2023-01-16T07:38:44;12.50;;;1.85;;
76606;SDS011;65498;50.916;4.698;2023-01-16T07:41:12;5.00;;;0.82;;
76606;SDS011;65498;50.916;4.698;2023-01-16T07:43:40;3.33;;;1.02;;
76606;SDS011;65498;50.916;4.698;2023-01-16T07:46:07;3.15;;;1.00;;
76606;SDS011;65498;50.916;4.698;2023-01-16T07:48:35;5.12;;;0.78;;
76606;SDS011;65498;50.916;4.698;2023-01-16T07:51:03;4.03;;;0.50;;
76606;SDS011;65498;50.916;4.698;2023-01-16T07:53:31;2.95;;;0.50;;
76606;SDS011;65498;50.916;4.698;2023-01-16T07:55:59;2.37;;;0.93;;
76606;SDS011;65498;50.916;4.698;2023-01-16T07:58:28;1.62;;;0.65;;
76606;SDS011;65498;50.916;4.698;2023-01-16T08:00:56;4.80;;;1.10;;
76606;SDS011;65498;50.916;4.698;2023-01-16T08:03:24;2.60;;;0.68;;
76606;SDS011;65498;50.916;4.698;2023-01-16T08:05:56;2.77;;;0.88;;
76606;SDS011;65498;50.916;4.698;2023-01-16T08:08:24;2.42;;;0.60;;
76606;SDS011;65498;50.916;4.698;2023-01-16T08:10:53;2.75;;;0.70;;
76606;SDS011;65498;50.916;4.698;2023-01-16T08:13:24;2.52;;;0.60;;
76606;SDS011;65498;50.916;4.698;2023-01-16T08:15:54;5.50;;;0.90;;
76606;SDS011;65498;50.916;4.698;2023-01-16T08:18:21;2.92;;;0.55;;
76606;SDS011;65498;50.916;4.698;2023-01-16T08:20:49;2.33;;;0.80;;
76606;SDS011;65498;50.916;4.698;2023-01-16T08:23:17;1.80;;;0.55;;
76606;SDS011;65498;50.916;4.698;2023-01-16T08:25:44;3.65;;;0.90;;
76606;SDS011;65498;50.916;4.698;2023-01-16T08:28:15;5.22;;;0.90;;
76606;SDS011;65498;50.916;4.698;2023-01-16T08:30:42;2.20;;;0.68;;
76606;SDS011;65498;50.916;4.698;2023-01-16T08:33:10;2.92;;;0.60;;
76606;SDS011;65498;50.916;4.698;2023-01-16T08:35:37;4.22;;;0.90;;
76606;SDS011;65498;50.916;4.698;2023-01-16T08:38:06;2.72;;;0.80;;
76606;SDS011;65498;50.916;4.698;2023-01-16T08:40:33;3.47;;;0.82;;
76606;SDS011;65498;50.916;4.698;2023-01-16T08:43:01;5.12;;;1.40;;
76606;SDS011;65498;50.916;4.698;2023-01-16T08:45:36;6.22;;;1.30;;
76606;SDS011;65498;50.916;4.698;2023-01-16T08:48:26;8.05;;;2.92;;
76606;SDS011;65498;50.916;4.698;2023-01-16T08:51:15;4.00;;;0.93;;
76606;SDS011;65498;50.916;4.698;2023-01-16T08:53:51;5.12;;;0.90;;
76606;SDS011;65498;50.916;4.698;2023-01-16T08:56:20;8.08;;;2.25;;
76606;SDS011;65498;50.916;4.698;2023-01-16T08:58:48;12.58;;;7.28;;
76606;SDS011;65498;50.916;4.698;2023-01-16T09:01:16;38.75;;;27.27;;
76606;SDS011;65498;50.916;4.698;2023-01-16T09:03:45;90.83;;;66.45;;
76606;SDS011;65498;50.916;4.698;2023-01-16T09:06:12;175.82;;;124.65;;
76606;SDS011;65498;50.916;4.698;2023-01-16T09:08:40;335.10;;;223.82;;
76606;SDS011;65498;50.916;4.698;2023-01-16T09:11:07;297.85;;;197.65;;
76606;SDS011;65498;50.916;4.698;2023-01-16T09:13:53;256.00;;;172.13;;
76606;SDS011;65498;50.916;4.698;2023-01-16T09:16:23;232.52;;;155.72;;
76606;SDS011;65498;50.916;4.698;2023-01-16T09:18:51;232.60;;;150.03;;
76606;SDS011;65498;50.916;4.698;2023-01-16T09:21:20;221.28;;;146.02;;
76606;SDS011;65498;50.916;4.698;2023-01-16T09:23:49;217.37;;;144.50;;
76606;SDS011;65498;50.916;4.698;2023-01-16T09:26:18;208.90;;;140.82;;
76606;SDS011;65498;50.916;4.698;2023-01-16T09:28:45;200.78;;;133.43;;
76606;SDS011;65498;50.916;4.698;2023-01-16T09:31:13;197.90;;;129.00;;
76606;SDS011;65498;50.916;4.698;2023-01-16T09:33:40;180.20;;;119.22;;
76606;SDS011;65498;50.916;4.698;2023-01-16T09:36:08;174.75;;;117.22;;
76606;SDS011;65498;50.916;4.698;2023-01-16T09:38:35;152.15;;;104.60;;
76606;SDS011;65498;50.916;4.698;2023-01-16T09:41:03;162.62;;;108.52;;
76606;SDS011;65498;50.916;4.698;2023-01-16T09:43:35;159.18;;;104.17;;
76606;SDS011;65498;50.916;4.698;2023-01-16T09:46:12;154.90;;;104.97;;
76606;SDS011;65498;50.916;4.698;2023-01-16T09:48:52;155.27;;;102.75;;
76606;SDS011;65498;50.916;4.698;2023-01-16T09:51:31;148.25;;;99.47;;
76606;SDS011;65498;50.916;4.698;2023-01-16T09:54:04;145.28;;;95.12;;
76606;SDS011;65498;50.916;4.698;2023-01-16T09:56:53;135.90;;;90.95;;
76606;SDS011;65498;50.916;4.698;2023-01-16T09:59:41;134.57;;;89.22;;
76606;SDS011;65498;50.916;4.698;2023-01-16T10:02:27;131.10;;;87.30;;
76606;SDS011;65498;50.916;4.698;2023-01-16T10:05:00;124.60;;;84.05;;
76606;SDS011;65498;50.916;4.698;2023-01-16T10:10:57;120.57;;;77.78;;
76606;SDS011;65498;50.916;4.698;2023-01-16T10:15:43;108.92;;;72.53;;
76606;SDS011;65498;50.916;4.698;2023-01-16T10:18:27;110.83;;;72.08;;
76606;SDS011;65498;50.916;4.698;2023-01-16T10:23:32;104.78;;;69.75;;
76606;SDS011;65498;50.916;4.698;2023-01-16T10:26:09;99.75;;;65.92;;
76606;SDS011;65498;50.916;4.698;2023-01-16T10:28:46;98.12;;;64.22;;
76606;SDS011;65498;50.916;4.698;2023-01-16T10:31:16;94.07;;;63.92;;
76606;SDS011;65498;50.916;4.698;2023-01-16T10:33:51;93.85;;;62.40;;
76606;SDS011;65498;50.916;4.698;2023-01-16T10:36:24;88.05;;;59.13;;
76606;SDS011;65498;50.916;4.698;2023-01-16T10:38:55;82.70;;;56.18;;
76606;SDS011;65498;50.916;4.698;2023-01-16T10:41:34;81.25;;;55.33;;
76606;SDS011;65498;50.916;4.698;2023-01-16T10:44:23;81.30;;;54.93;;
76606;SDS011;65498;50.916;4.698;2023-01-16T10:47:26;76.95;;;52.13;;
76606;SDS011;65498;50.916;4.698;2023-01-16T10:50:12;80.47;;;53.92;;
76606;SDS011;65498;50.916;4.698;2023-01-16T10:52:43;75.42;;;51.63;;
76606;SDS011;65498;50.916;4.698;2023-01-16T10:55:13;70.95;;;49.75;;
76606;SDS011;65498;50.916;4.698;2023-01-16T10:57:45;70.85;;;47.85;;
76606;SDS011;65498;50.916;4.698;2023-01-16T11:00:20;71.10;;;47.35;;
76606;SDS011;65498;50.916;4.698;2023-01-16T11:02:47;68.12;;;45.73;;
76606;SDS011;65498;50.916;4.698;2023-01-16T11:08:10;64.82;;;43.87;;
76606;SDS011;65498;50.916;4.698;2023-01-16T11:10:40;64.62;;;43.73;;
76606;SDS011;65498;50.916;4.698;2023-01-16T11:18:58;57.27;;;39.83;;
76606;SDS011;65498;50.916;4.698;2023-01-16T11:21:31;53.25;;;38.70;;
76606;SDS011;65498;50.916;4.698;2023-01-16T11:24:00;60.80;;;40.78;;
76606;SDS011;65498;50.916;4.698;2023-01-16T11:26:32;58.40;;;39.63;;
76606;SDS011;65498;50.916;4.698;2023-01-16T11:29:00;57.45;;;37.80;;
76606;SDS011;65498;50.916;4.698;2023-01-16T11:31:30;52.50;;;36.35;;
76606;SDS011;65498;50.916;4.698;2023-01-16T11:33:58;53.17;;;35.85;;
76606;SDS011;65498;50.916;4.698;2023-01-16T11:36:30;48.23;;;33.58;;
76606;SDS011;65498;50.916;4.698;2023-01-16T11:38:59;49.42;;;33.78;;
76606;SDS011;65498;50.916;4.698;2023-01-16T11:41:37;48.40;;;33.53;;
76606;SDS011;65498;50.916;4.698;2023-01-16T11:47:02;47.38;;;32.48;;
76606;SDS011;65498;50.916;4.698;2023-01-16T11:49:34;48.05;;;31.23;;
76606;SDS011;65498;50.916;4.698;2023-01-16T11:52:04;47.33;;;30.20;;
76606;SDS011;65498;50.916;4.698;2023-01-16T11:54:32;42.85;;;29.80;;
76606;SDS011;65498;50.916;4.698;2023-01-16T12:02:18;39.00;;;26.90;;
76606;SDS011;65498;50.916;4.698;2023-01-16T12:07:48;39.65;;;27.95;;
76606;SDS011;65498;50.916;4.698;2023-01-16T12:13:06;36.75;;;24.87;;
76606;SDS011;65498;50.916;4.698;2023-01-16T12:16:15;35.35;;;24.35;;
76606;SDS011;65498;50.916;4.698;2023-01-16T12:19:01;39.75;;;26.35;;
76606;SDS011;65498;50.916;4.698;2023-01-16T12:21:35;34.55;;;23.00;;
76606;SDS011;65498;50.916;4.698;2023-01-16T12:29:43;31.25;;;20.90;;
76606;SDS011;65498;50.916;4.698;2023-01-16T12:32:31;31.80;;;21.05;;
76606;SDS011;65498;50.916;4.698;2023-01-16T12:38:10;30.50;;;20.60;;
76606;SDS011;65498;50.916;4.698;2023-01-16T12:40:49;30.50;;;20.97;;
76606;SDS011;65498;50.916;4.698;2023-01-16T12:43:31;30.43;;;19.87;;
76606;SDS011;65498;50.916;4.698;2023-01-16T12:46:19;31.50;;;21.30;;
76606;SDS011;65498;50.916;4.698;2023-01-16T12:59:45;25.02;;;16.48;;
76606;SDS011;65498;50.916;4.698;2023-01-16T13:02:52;25.23;;;17.57;;
76606;SDS011;65498;50.916;4.698;2023-01-16T13:04:58;25.20;;;16.75;;
76606;SDS011;65498;50.916;4.698;2023-01-16T13:07:29;23.90;;;15.55;;
76606;SDS011;65498;50.916;4.698;2023-01-16T13:12:57;22.73;;;15.23;;
76606;SDS011;65498;50.916;4.698;2023-01-16T13:15:45;22.62;;;14.95;;
76606;SDS011;65498;50.916;4.698;2023-01-16T13:20:55;18.65;;;12.82;;
76606;SDS011;65498;50.916;4.698;2023-01-16T13:23:32;22.32;;;13.60;;
76606;SDS011;65498;50.916;4.698;2023-01-16T13:26:09;21.25;;;13.70;;
76606;SDS011;65498;50.916;4.698;2023-01-16T13:28:55;21.65;;;13.40;;
76606;SDS011;65498;50.916;4.698;2023-01-16T13:31:38;20.45;;;13.50;;
76606;SDS011;65498;50.916;4.698;2023-01-16T13:34:18;19.00;;;12.58;;
76606;SDS011;65498;50.916;4.698;2023-01-16T13:37:09;18.82;;;12.23;;
76606;SDS011;65498;50.916;4.698;2023-01-16T13:42:21;17.90;;;11.80;;
76606;SDS011;65498;50.916;4.698;2023-01-16T13:47:37;20.02;;;12.47;;
76606;SDS011;65498;50.916;4.698;2023-01-16T13:52:45;17.60;;;11.15;;
76606;SDS011;65498;50.916;4.698;2023-01-16T13:55:48;17.20;;;10.50;;
76606;SDS011;65498;50.916;4.698;2023-01-16T13:58:06;17.12;;;10.48;;
76606;SDS011;65498;50.916;4.698;2023-01-16T14:00:44;17.37;;;10.68;;
76606;SDS011;65498;50.916;4.698;2023-01-16T14:03:17;16.55;;;10.55;;
76606;SDS011;65498;50.916;4.698;2023-01-16T14:08:51;16.00;;;9.83;;
76606;SDS011;65498;50.916;4.698;2023-01-16T14:14:25;14.43;;;9.25;;
76606;SDS011;65498;50.916;4.698;2023-01-16T14:17:14;13.60;;;7.35;;
76606;SDS011;65498;50.916;4.698;2023-01-16T14:22:24;12.80;;;7.10;;
76606;SDS011;65498;50.916;4.698;2023-01-16T14:25:05;13.35;;;7.40;;
76606;SDS011;65498;50.916;4.698;2023-01-16T14:27:40;13.72;;;7.78;;
76606;SDS011;65498;50.916;4.698;2023-01-16T14:30:05;11.28;;;7.12;;
76606;SDS011;65498;50.916;4.698;2023-01-16T14:32:36;12.10;;;7.47;;
76606;SDS011;65498;50.916;4.698;2023-01-16T14:35:12;13.18;;;7.25;;
76606;SDS011;65498;50.916;4.698;2023-01-16T14:37:42;12.45;;;6.85;;
76606;SDS011;65498;50.916;4.698;2023-01-16T14:40:22;12.78;;;7.78;;
76606;SDS011;65498;50.916;4.698;2023-01-16T14:42:50;12.23;;;7.25;;
76606;SDS011;65498;50.916;4.698;2023-01-16T14:45:37;12.50;;;7.47;;
76606;SDS011;65498;50.916;4.698;2023-01-16T14:51:17;11.08;;;6.47;;
76606;SDS011;65498;50.916;4.698;2023-01-16T14:54:11;11.40;;;6.87;;
76606;SDS011;65498;50.916;4.698;2023-01-16T14:57:18;10.80;;;5.97;;
76606;SDS011;65498;50.916;4.698;2023-01-16T15:02:47;11.25;;;6.55;;
76606;SDS011;65498;50.916;4.698;2023-01-16T15:08:18;11.05;;;5.60;;
76606;SDS011;65498;50.916;4.698;2023-01-16T15:10:54;9.98;;;5.70;;
76606;SDS011;65498;50.916;4.698;2023-01-16T15:13:30;10.58;;;6.00;;
76606;SDS011;65498;50.916;4.698;2023-01-16T15:16:00;9.68;;;5.42;;
76606;SDS011;65498;50.916;4.698;2023-01-16T15:18:30;10.90;;;5.60;;
76606;SDS011;65498;50.916;4.698;2023-01-16T15:21:17;9.23;;;5.05;;
76606;SDS011;65498;50.916;4.698;2023-01-16T15:24:03;10.03;;;5.75;;
76606;SDS011;65498;50.916;4.698;2023-01-16T15:26:36;10.65;;;5.90;;
76606;SDS011;65498;50.916;4.698;2023-01-16T15:29:24;9.90;;;5.10;;
76606;SDS011;65498;50.916;4.698;2023-01-16T15:32:13;8.43;;;4.58;;
76606;SDS011;65498;50.916;4.698;2023-01-16T15:34:43;9.53;;;5.20;;
76606;SDS011;65498;50.916;4.698;2023-01-16T15:37:22;10.60;;;5.70;;
76606;SDS011;65498;50.916;4.698;2023-01-16T15:39:52;10.00;;;5.60;;
76606;SDS011;65498;50.916;4.698;2023-01-16T15:42:20;8.63;;;4.67;;
76606;SDS011;65498;50.916;4.698;2023-01-16T15:45:15;9.83;;;5.40;;
76606;SDS011;65498;50.916;4.698;2023-01-16T15:51:11;8.83;;;4.20;;
76606;SDS011;65498;50.916;4.698;2023-01-16T15:53:42;9.43;;;5.00;;
76606;SDS011;65498;50.916;4.698;2023-01-16T15:56:17;8.43;;;4.33;;
76606;SDS011;65498;50.916;4.698;2023-01-16T15:58:50;8.85;;;4.17;;
76606;SDS011;65498;50.916;4.698;2023-01-16T16:01:26;8.13;;;4.15;;
76606;SDS011;65498;50.916;4.698;2023-01-16T16:03:53;7.92;;;4.20;;
76606;SDS011;65498;50.916;4.698;2023-01-16T16:06:20;8.48;;;4.40;;
76606;SDS011;65498;50.916;4.698;2023-01-16T16:08:51;8.15;;;3.87;;
76606;SDS011;65498;50.916;4.698;2023-01-16T16:11:20;7.95;;;3.77;;
76606;SDS011;65498;50.916;4.698;2023-01-16T16:14:14;7.70;;;3.95;;
76606;SDS011;65498;50.916;4.698;2023-01-16T16:17:17;7.80;;;3.72;;
76606;SDS011;65498;50.916;4.698;2023-01-16T16:20:22;8.45;;;3.98;;
76606;SDS011;65498;50.916;4.698;2023-01-16T16:22:47;7.42;;;3.62;;
76606;SDS011;65498;50.916;4.698;2023-01-16T16:25:26;7.85;;;3.62;;
76606;SDS011;65498;50.916;4.698;2023-01-16T16:27:51;7.35;;;3.27;;
76606;SDS011;65498;50.916;4.698;2023-01-16T16:30:23;7.75;;;3.33;;
76606;SDS011;65498;50.916;4.698;2023-01-16T16:32:50;8.50;;;3.20;;
76606;SDS011;65498;50.916;4.698;2023-01-16T16:35:24;7.45;;;3.35;;
76606;SDS011;65498;50.916;4.698;2023-01-16T16:37:55;7.42;;;3.40;;
76606;SDS011;65498;50.916;4.698;2023-01-16T16:40:23;8.90;;;3.33;;
76606;SDS011;65498;50.916;4.698;2023-01-16T16:42:52;6.67;;;2.87;;
76606;SDS011;65498;50.916;4.698;2023-01-16T16:45:25;6.58;;;2.92;;
76606;SDS011;65498;50.916;4.698;2023-01-16T16:48:38;7.05;;;3.25;;
76606;SDS011;65498;50.916;4.698;2023-01-16T16:50:41;6.87;;;3.17;;
76606;SDS011;65498;50.916;4.698;2023-01-16T16:53:13;6.10;;;2.60;;
76606;SDS011;65498;50.916;4.698;2023-01-16T16:55:48;6.03;;;2.72;;
76606;SDS011;65498;50.916;4.698;2023-01-16T16:58:21;8.08;;;2.90;;
76606;SDS011;65498;50.916;4.698;2023-01-16T17:00:51;8.35;;;3.02;;
76606;SDS011;65498;50.916;4.698;2023-01-16T17:03:20;6.95;;;2.80;;
76606;SDS011;65498;50.916;4.698;2023-01-16T17:05:49;7.58;;;3.20;;
76606;SDS011;65498;50.916;4.698;2023-01-16T17:08:22;6.28;;;2.60;;
76606;SDS011;65498;50.916;4.698;2023-01-16T17:10:53;6.75;;;2.85;;